Anchorage, AK

2:17 PM AKDT on September 04, 2015 (GMT -0800)
Merrill | | Change Station
CLOSE
Current Station
Airport
Location: Anchorage Merrill,
Elevation: 135 ft
Nearby Weather Stations

Elev 135 ft 61.22 °N, 149.85 °W | Updated 24 minutes ago

Overcast
Overcast
55 °F
Feels Like 55 °F
N
5
Wind Variable Wind from WNW

Today
High -- | Low -- °F
--% Chance of Precip.
Yesterday
High -- | Low -- °F
Precip. -- in
6:58 AM 8:56 PM
Waning Gibbous, 55% visible
Pressure 29.82 in
Visibility 10.0 miles
Clouds Few 1100 ft
Mostly Cloudy 4600 ft
Overcast 5500 ft
Dew Point 48 °F
Humidity 77%
Rainfall 0.08 in
Snow Depth Not available.
UV 1 out of 12
Pollen Not available.
Air Quality Not available.
Flu Activity Not available.
METAR PAMR 042153Z 30004KT 10SM FEW011 BKN046 OVC055 13/09 A2981 RMK AO2 SLP096 T01280089
Pressure 29.82 in
Visibility 10.0 miles
Clouds Few 1100 ft
Mostly Cloudy 4600 ft
Overcast 5500 ft
Dew Point 48 °F
Humidity 77%
Rainfall 0.08 in
Snow Depth Not available.
UV 1 out of 12
Pollen Not available.
Air Quality Not available.
Flu Activity Not available.
METAR PAMR 042153Z 30004KT 10SM FEW011 BKN046 OVC055 13/09 A2981 RMK AO2 SLP096 T01280089

10-Day Weather Forecast

×

Almanac

Astronomy

Sep. 04, 2015 Rise Set
Actual Time
Civil Twilight
Nautical Twilight
Astronomical Twilight
Moon
Length of Visible Light
Length of Day
Tomorrow will be .
, % of the Moon is Illuminated

Today's Extremes

State Highs State Lows

Community

WunderPhotos

Upload Photos

1,852,307 photos uploaded!

WunderBlogs® & News

Nearby

Air Quality

  Air Quality AQ Index Pollutant
Not available.

Snow Depth

Station Depth Elevation

Earthquake Activity

City Distance Mag. Time & Date
Minimum magnitude displayed is 2.5.

Coastal Water Temperatures

Place Temperature

Stations

Nearby Weather Stations

Station Location Temp. Windchill Dew Point Humidity Wind Precip. Elev Updated Type